• Join FlightAware (Why Join?)
  • Login
  • US Flag 
02:37AM EST


 

Airport Tracker/Info


-or-


 

Live Flight TrackerFlight Track Log ✈ GJS3710 ✈ 18-May-2013 ✈ KDEN - KOMA

Flight Track Log - Related Links

Times and Time Zones

All times are in EDT time to prevent confusion due to time zone crossing. See the GJS3710 flight status page for this flight to view local times or setup timezone preferences in your user account.

Time Position Orientation Groundspeed Altitude Reporting Facility
EDT Latitude Longitude Course Direction KTS MPH feet Rate Location/Type
05:18PM 39.8992 -104.4733 79° East 243 280 10,200  Level Denver Center
05:19PM 39.9501 -104.1218 73° East  Level FlightAware Approximate
05:19PM 39.9103 -104.3758 82° East 270 311 12,400  Level Denver Center
05:20PM 39.9667 -103.9844 90° East  Level FlightAware Approximate
05:20PM 39.9267 -104.2614 79° East 299 344 14,600  Level Denver Center
05:21PM 39.9953 -103.8498 79° East  Level FlightAware Approximate
05:21PM 39.9411 -104.1461 81° East 321 369 17,000  Level Denver Center
05:22PM 40.0241 -103.7151 79° East  Level FlightAware Approximate
05:22PM 39.8961 -104.0561 123° Southeast 296 341 19,300  Level Denver Center
05:23PM 40.0438 -103.5767 79° East  Level FlightAware Approximate
05:23PM 39.8267 -103.9736 138° Southeast 314 361 20,900  Level Denver Center
05:24PM 39.7661 -103.8717 128° Southeast 360 414 21,900 1,020 Climbing Denver Center
05:25PM 39.6997 -103.7589 127° Southeast 390 449 23,100 1,260 Climbing Denver Center
05:26PM 39.6378 -103.6397 124° Southeast 404 465 24,500 1,500 Climbing Denver Center
05:27PM 39.5500 -103.5228 134° Southeast 405 466 26,200 1,500 Climbing Denver Center
05:28PM 39.4697 -103.4233 136° Southeast 413 475 27,600 1,320 Climbing Denver Center
05:29PM 39.3775 -103.3083 136° Southeast 413 475 29,000 660 Climbing Denver Center
05:30PM 39.2981 -103.2097 136° Southeast 413 475 29,000  Level Denver Center
05:31PM 39.2397 -103.0914 122° Southeast 419 482 29,000  Level Denver Center
05:32PM 39.1894 -102.9406 113° Southeast 411 473 29,000 480 Level Denver Center
05:33PM 39.1594 -102.8006 105° East 423 487 30,100 1,200 Climbing Denver Center
05:34PM 39.1314 -102.6389 103° East 425 489 31,600 1,260 Climbing Denver Center
05:35PM 39.1286 -102.4892 91° East 434 499 32,800 1,020 Climbing Denver Center
05:36PM 39.1253 -102.3150 91° East 438 504 34,000 900 Climbing Denver Center
05:37PM 39.1214 -102.1406 92° East 440 506 34,900 480 Climbing Denver Center
05:38PM 39.1231 -101.9600 89° East 456 525 35,000  Climbing Denver Center
05:39PM 39.1903 -101.8169 59° Northeast 497 572 35,000  Level Denver Center
05:40PM 39.3292 -101.7428 22° Northeast 496 571 35,000  Level Denver Center
05:41PM 39.4631 -101.7100 11° North 484 557 35,000  Level Denver Center
05:42PM 39.5883 -101.6619 16° North 489 563 35,000  Level Denver Center
05:43PM 39.7372 -101.6131 14° North 492 566 35,000  Level Denver Center
05:45PM 39.8642 -101.5653 16° North 494 568 35,000  Level Denver Center
05:46PM 39.9878 -101.5086 19° North 492 566 35,000  Level Denver Center
05:47PM 40.1042 -101.3819 40° Northeast 484 557 35,000  Level Denver Center
05:48PM 40.2089 -101.2794 37° Northeast 491 565 35,000  Level Denver Center
05:49PM 40.3253 -101.1511 40° Northeast 490 564 35,000  Level Denver Center
05:50PM 40.4028 -101.0208 52° Northeast 472 543 35,000  Level Denver Center
05:51PM 40.4472 -100.8408 72° East 466 536 35,000  Level Denver Center
05:52PM 40.4817 -100.6861 74° East 465 535 35,000  Level Denver Center
05:54PM 40.5558 -100.3581 73° East 466 536 35,000  Level Minneapolis Center
05:55PM 40.5919 -100.1936 74° East 467 537 35,000  Level Minneapolis Center
05:56PM 40.6286 -100.0283 74° East 470 541 35,000  Level Minneapolis Center
05:57PM 40.6639 -99.8622 74° East 472 543 35,000  Level Minneapolis Center
05:58PM 40.6997 -99.6967 74° East 471 542 35,000  Level Minneapolis Center
05:59PM 40.7347 -99.5292 75° East 474 545 35,000  Level Minneapolis Center
06:00PM 40.7694 -99.3636 74° East 472 543 35,000  Level Minneapolis Center
06:01PM 40.8042 -99.1972 75° East 472 543 35,000  Level Minneapolis Center
06:02PM 40.8417 -99.0153 75° East 474 545 35,000 -120 Level Minneapolis Center
06:03PM 40.8750 -98.8483 75° East 472 543 34,800 -420 Descending Minneapolis Center
06:04PM 40.9081 -98.6803 75° East 473 544 34,200 -780 Descending Minneapolis Center
06:05PM 40.9431 -98.5181 74° East 465 535 33,300 -1,020 Descending Minneapolis Center
06:06PM 40.9769 -98.3450 75° East 458 527 32,200 -1,080 Descending Minneapolis Center
06:07PM 41.0172 -98.1878 71° East 455 524 31,200 -1,380 Descending Minneapolis Center
06:08PM 41.0597 -98.0308 70° East 454 522 29,400 -2,160 Descending Minneapolis Center
06:09PM 41.1100 -97.8431 70° East 450 518 26,900 -2,220 Descending Minneapolis Center
06:10PM 41.1494 -97.6967 70° East 431 496 24,900 -1,980 Descending Minneapolis Center
06:11PM 41.1867 -97.5536 71° East 415 478 22,900 -1,980 Descending Minneapolis Center
06:12PM 41.2231 -97.4150 71° East 401 461 20,900 -1,920 Descending Minneapolis Center
06:13PM 41.2564 -97.2853 71° East 394 453 19,000 -2,220 Descending Minneapolis Center
06:14PM 41.2667 -97.1867 82° East 391 450 17,300 -2,220 Descending Minneapolis Center
06:14PM 41.2914 -97.1494 49° Northeast 390 449 16,800 -1,320 Descending Minneapolis Center
06:15PM 41.3033 -97.0556 80° East 369 425 16,000 -1,500 Descending Minneapolis Center
06:15PM 41.3253 -97.0214 49° Northeast 372 428 15,300 -2,520 Descending Minneapolis Center
06:16PM 41.3339 -96.9333 83° East 350 403 13,500 -2,280 Descending Minneapolis Center
06:16PM 41.3553 -96.8994 50° Northeast 352 405 13,000 -1,980 Descending Minneapolis Center
06:17PM 41.3458 -96.8100 98° East 329 379 11,500 -2,340 Descending Minneapolis Center
06:17PM 41.3492 -96.7564 85° East 327 376 10,600 -1,800 Descending Minneapolis Center
06:18PM 41.3292 -96.7064 118° Southeast 317 365 9,900 -1,500 Descending Minneapolis Center
06:18PM 41.3317 -96.6450 87° East 313 360 9,100 -1,440 Descending Minneapolis Center
06:19PM 41.3289 -96.5956 94° East 309 356 8,500 -840 Descending Minneapolis Center
06:19PM 41.3392 -96.5314 78° East 307 353 8,100 -840 Descending Minneapolis Center
06:20PM 41.3464 -96.4092 85° East 283 326 7,100 -1,080 Descending Minneapolis Center
06:21PM 41.3517 -96.3153 86° East 269 310 5,900 -1,200 Descending Minneapolis Center
06:23PM 41.3533 -96.2128 89° East 242 278 4,600 -1,080 Descending Minneapolis Center
06:24PM 41.3622 -96.1242 82° East 243 280 3,600 -1,020 Descending Minneapolis Center
06:25PM 41.3633 -96.0422 89° East 202 232 2,500 -600 Descending Minneapolis Center
06:26PM 41.3614 -95.9786 92° East 166 191 2,400 -120 Descending Minneapolis Center